Logs | Sid Leben, Spring, TX, USA - EM20fa
Paging Controls
Log ID Date UTC KHz ID Location S/P ITU Region GSQ LSB USB Sec. Fmt. Power KM Miles Deg
547228 2011-02-26 1224 371 SOA Sonora TX USA na DM90qn 25 492 306 278
547235 2011-02-26 0510 377 BUB Burwell NE USA na EN01ks 1345 836 347
547238 2011-02-26 0455 379 TL 'Wakul' Tallahassee FL USA na EM70th 400 1074 667 85
547236 2011-02-26 0436 379 FSK Fort Scott KS USA na EM27ot 25 869 540 4
547234 2011-02-26 0431 376 ZIN Matthew Town / Great Inagua Island BAH ca FL30dx 400 2405 1494 109
547233 2011-02-26 0423 375 SPH Springhill LA USA na EM32hw 25 384 239 31
547229 2011-02-26 0420 374 FLZ Fort Rucker 'Florala Airport' AL USA na EM61ub 893 555 80
547231 2011-02-26 0414 375 GUA Guatemala City GTM ca EK44ro 50 1789 1112 162
547230 2011-02-26 0411 375 DW 'Owaso' Tulsa OK USA na EM26bh 20 700 435 357
547227 2011-02-26 0403 370 OUN Norman OK USA na EM15gf 606 377 343
547237 2011-02-25 2141 379 LRR 'Allen Parish' Oakdale LA USA na EM30pp 281 174 74
547232 2011-02-25 2114 375 PSN Palestine TX USA na EM21ds 25 195 121 355
541593 2011-01-30 0454 266 LLN Levelland TX USA na DM83tn 756 470 303
541600 2011-01-29 1808 508 WD2XSH/7 Natchitoches LA USA na
541599 2011-01-28 1959 521 DWH 'David Hooks' Houston TX USA na EM20fd 14 9
541598 2011-01-28 1947 418 CW 'Mossy' Lake Charles LA USA na EM30jh 25 227 141 81
541597 2011-01-28 1932 410 DQU De Quincy LA USA na EM30gk 205 128 76
541596 2011-01-28 1918 400 ROB 'Robinson' Waco TX USA na EM11lm 220 137 319
541595 2011-01-28 1915 269 AHX Athens TX USA na EM22cd 25 237 148 354
541594 2011-01-28 1909 269 AR 'Acadi' New Iberia LA USA na EL49bw 25 353 219 90
541592 2011-01-28 1906 266 HBV Hebbronville TX USA na EL07pi 428 266 226
541591 2011-01-28 1857 263 ECY Eunice LA USA na EM30sn 25 302 188 77
541590 2011-01-28 1854 263 LB 'Freep' Angleton / Lake Jackson TX USA na EL29ge 93 58 175
541589 2011-01-28 1844 260 SNE Santa Elena TX USA na EL06rr 469 291 219
541588 2011-01-28 1841 260 AVZ 'Travis' Terrell TX USA na EM12vs 25 312 194 348
541587 2011-01-28 1836 260 CL 'Rowdy' College Station TX USA na EM10tl 95 59 302
539142 2011-01-20 2141 418 CW 'Mossy' Lake Charles LA USA na EM30jh 25 227 141 81
539141 2011-01-20 2137 391 DDP San Juan / Dorado / Luiz Munoz Marin Intl PR PTR ca FK68tl 2000 3211 1995 106
539140 2011-01-20 2124 375 LF 'Laffs' Lafayette LA USA na EM40bg 354 220 84
539139 2011-01-20 2115 356 GMZ 'Grindstone Mountain' Bowie TX USA na EM13co 452 281 332
539138 2011-01-20 2054 332 GUO Georgetown TX USA na EM10dq 221 137 290
539137 2011-01-20 2050 332 RPF Carthage TX USA na EM22ue 25 269 167 25
538846 2011-01-16 1218 375 DW 'Owaso' Tulsa OK USA na EM26bh 20 700 435 357
538845 2011-01-16 1210 370 OUN Norman OK USA na EM15gf 606 377 343
538844 2011-01-16 1203 362 OWP 'William Pogue' Sand Springs OK USA na EM16we 688 427 355
538843 2011-01-16 1156 344 ZIY George Town / Grand Cayman Island CYM ca EK99hg 1862 1157 126
538842 2011-01-16 1151 332 FIS 'Fish Hook' Key West FL USA na EL94cn 400 1487 924 110
537226 2011-01-11 1929 521 DWH 'David Hooks' Houston TX USA na EM20fd 14 9
537225 2011-01-11 1923 428 SYW 'Cash' Greenville TX USA na EM12xx 25 332 206 351
537224 2011-01-11 1921 418 CW 'Mossy' Lake Charles LA USA na EM30jh 25 227 141 81
537223 2011-01-11 1920 410 DQU De Quincy LA USA na EM30gk 205 128 76
537222 2011-01-11 1918 400 ROB 'Robinson' Waco TX USA na EM11lm 220 137 319
537221 2011-01-11 1916 396 CRS Corsicana TX USA na EM12ta 25 236 147 340
537220 2011-01-11 1915 391 GXD Nacogdoches TX USA na EM21pp 25 197 123 23
537219 2011-01-11 1914 391 RKP Rockport TX USA na EL18lc 25 258 160 214
537218 2011-01-11 1913 388 JUG 'Jecca' Seagoville TX USA na EM12rq 25 311 193 342
537217 2011-01-11 1910 385 DXB De Ridder LA USA na EM30hs 224 139 67
537216 2011-01-11 1906 380 BBD Brady TX USA na EM01ie 25 382 237 290
537215 2011-01-11 1905 379 LRR 'Allen Parish' Oakdale LA USA na EM30pp 281 174 74
537214 2011-01-11 1904 375 PSN Palestine TX USA na EM21ds 25 195 121 355
537213 2011-01-11 1903 368 AN 'Alamo' San Antonio TX USA na EL09ro 400 293 182 261
537212 2011-01-11 1902 365 FT 'Mufin' Fort Worth TX USA na EM12hv 25 364 226 331
537211 2011-01-11 1900 359 HHH Devine TX USA na EL09md 25 344 214 254
537210 2011-01-11 1850 353 BKS 'Brooks Co' Falfurrias TX USA na EL07we 25 403 251 219
537209 2011-01-11 1848 353 LC 'Keyli' Lake Charles LA USA na EM30ie 217 135 84
537208 2011-01-11 1846 350 OKT Yoakum TX USA na EL19kh 172 107 243
537207 2011-01-11 1845 350 LF 'Flufy' Lufkin TX USA na EM21of 152 95 27
537206 2011-01-11 1844 347 TKB 'Kleberg Co' Kingsville TX USA na EL07wo 25 368 229 223
537205 2011-01-11 1841 347 HLR 'Hood' Fort Hood (Killeen) TX USA na EM11dd 242 150 301
537204 2011-01-11 1840 347 JPA 'Sanjac' La Porte TX USA na EL29lq 25 61 38 127
537203 2011-01-11 1838 344 CGQ 'Powell' Corsicana TX USA na EM12sb 243 151 339
537202 2011-01-11 1837 344 BYY Bay City TX USA na EL28bx 25 120 75 195
537201 2011-01-11 1835 341 DNI Denison TX USA na EM13pt 25 436 271 345
537200 2011-01-11 1834 338 HR 'Sebas' Harlingen TX USA na EL16eh 25 460 286 206
537199 2011-01-11 1831 332 GUO Georgetown TX USA na EM10dq 221 137 290
537198 2011-01-11 1827 329 HMA Hondo TX USA na EL09ji 25 362 225 259
537197 2011-01-11 1808 326 MA 'Farly' Midland TX USA na DM81ux 400 679 422 290
537196 2011-01-11 1807 326 BVP Houston TX USA na EL29jx 25 32 20 98
537195 2011-01-11 1806 323 GR 'Starn' Fort Hood (Kileen) TX USA na EM11be 258 160 300
537194 2011-01-11 1805 320 TY Tyler / Indoo TX USA na EM22gj 100 264 164 1
537193 2011-01-11 1802 320.5 XXB XUN xx
537192 2011-01-11 1758 314 GGU Prague OK USA na EM15pm 25 621 386 350
537191 2011-01-11 1757 308 UTS Huntsville TX USA na EM20er 28 79 49 354
537190 2011-01-11 1753 286 EYQ 'Weiser' Houston TX USA na EL29ew 25 12 8 220
537189 2011-01-11 1752 281 UVA Uvalde TX USA na EL09de 25 413 257 258
537188 2011-01-11 1751 281 CX 'Alibi' Conroe TX USA na EM20gk 25 47 29 9
537187 2011-01-11 1750 278 UX 'Sulfy' Sulphur LA USA na EM30ge 201 125 84
537186 2011-01-11 1747 272 RU 'Garys' San Marcos TX USA na EL19ax 233 145 269
537185 2011-01-11 1745 269 AHX Athens TX USA na EM22cd 25 237 148 354
537184 2011-01-11 1744 269 AR 'Acadi' New Iberia LA USA na EL49bw 25 353 219 90
537182 2011-01-11 1740 263 LB 'Freep' Angleton / Lake Jackson TX USA na EL29ge 93 58 175
537183 2011-01-11 1740 263 ECY Eunice LA USA na EM30sn 25 302 188 77
537181 2011-01-11 1739 260 CL 'Rowdy' College Station TX USA na EM10tl 95 59 302
537180 2011-01-11 1737 255 BS 'Creed' Austin TX USA na EM10dc 209 130 273
537178 2011-01-11 1736 251 MNZ Hamilton TX USA na EM01wo 25 303 188 306
537179 2011-01-11 1736 253 OC 'Nados' Nacogdoches TX USA na EM21pl 25 181 112 25
537177 2011-01-11 1735 248 PQF Mesquite TX USA na EM12rt 25 325 202 343
537176 2011-01-11 1728 245 ARM Wharton TX USA na EL19wg 25 101 63 214
537175 2011-01-11 1727 245 PTN Patterson LA USA na EL49hr 403 250 93
537174 2011-01-11 1724 230 BNZ Abbeville LA USA na EL39wx 25 329 204 89
537173 2011-01-11 1720 201 GV 'Major' Greenville TX USA na EM13xd 25 351 218 352
515682 2010-11-27 1247 239 LNC Lancaster TX USA na EM12pn 25 304 189 338
515681 2010-11-27 1223 230 BNZ Abbeville LA USA na EL39wx 25 329 204 89
515680 2010-11-27 1211 201 GV 'Major' Greenville TX USA na EM13xd 25 351 218 352
495177 2010-09-25 0513 521 DWH 'David Hooks' Houston TX USA na EM20fd 14 9
495176 2010-09-25 0508 428 SYW 'Cash' Greenville TX USA na EM12xx 25 332 206 351
495175 2010-09-25 0504 414 ATS Artesia NM USA na DM72su 25 902 561 292
495174 2010-09-25 0500 410 DQU De Quincy LA USA na EM30gk 205 128 76
495173 2010-09-25 0449 379 FSK Fort Scott KS USA na EM27ot 25 869 540 4
495172 2010-09-25 0448 379 LRR 'Allen Parish' Oakdale LA USA na EM30pp 281 174 74
495171 2010-09-25 0444 379 TL 'Wakul' Tallahassee FL USA na EM70th 400 1074 667 85
495170 2010-09-25 0442 375 DW 'Owaso' Tulsa OK USA na EM26bh 20 700 435 357
495169 2010-09-25 0438 362 OWP 'William Pogue' Sand Springs OK USA na EM16we 688 427 355
495168 2010-09-25 0435 365 HQG Hugoton KS USA na DM97hd 25 958 596 327
495167 2010-09-25 0424 353 LI 'Lasky' Little Rock AR USA na EM34uq 400 602 374 29
495165 2010-09-25 0421 350 RG 'Gally' Oklahoma City OK USA na EM15eh 400 620 385 342
495166 2010-09-25 0421 350 OKT Yoakum TX USA na EL19kh 172 107 243
495164 2010-09-25 0419 347 JPA 'Sanjac' La Porte TX USA na EL29lq 25 61 38 127
495163 2010-09-25 0418 344 BYY Bay City TX USA na EL28bx 25 120 75 195
495162 2010-09-25 0416 344 ZIY George Town / Grand Cayman Island CYM ca EK99hg 1862 1157 126
495161 2010-09-25 0412 332 GUO Georgetown TX USA na EM10dq 221 137 290
495160 2010-09-25 0407 329 HMA Hondo TX USA na EL09ji 25 362 225 259
495158 2010-09-25 0402 314 GGU Prague OK USA na EM15pm 25 621 386 350
495159 2010-09-25 0402 326 BVP Houston TX USA na EL29jx 25 32 20 98
495157 2010-09-25 0356 286 EYQ 'Weiser' Houston TX USA na EL29ew 25 12 8 220
495156 2010-09-25 0354 281 UVA Uvalde TX USA na EL09de 25 413 257 258
495155 2010-09-25 0351 281 CX 'Alibi' Conroe TX USA na EM20gk 25 47 29 9
495154 2010-09-25 0345 275 GUY Guymon OK USA na DM96fq 25 927 576 324
495153 2010-09-25 0341 263 LB 'Freep' Angleton / Lake Jackson TX USA na EL29ge 93 58 175
495152 2010-09-25 0335 248 PQF Mesquite TX USA na EM12rt 25 325 202 343
495151 2010-09-25 0329 245 ARM Wharton TX USA na EL19wg 25 101 63 214
430137 2009-10-11 0330 309 #850 Clark SD USA na EN14aw 1672 1039 353
430136 2009-10-11 0324 295 #812 Eglin AFB (Auxilliary) FL USA na EM60rp 866 538 83
426259 2009-09-27 1235 260 AVZ 'Travis' Terrell TX USA na EM12vs 25 312 194 348
426258 2009-09-27 1233 260 CL 'Rowdy' College Station TX USA na EM10tl 95 59 302
426257 2009-09-27 1226 251 MNZ Hamilton TX USA na EM01wo 25 303 188 306
426262 2009-09-25 1857 521 DWH 'David Hooks' Houston TX USA na EM20fd 14 9
426261 2009-09-25 1849 269 AHX Athens TX USA na EM22cd 25 237 148 354
426260 2009-09-25 1844 263 LB 'Freep' Angleton / Lake Jackson TX USA na EL29ge 93 58 175
426256 2009-09-25 1832 245 ARM Wharton TX USA na EL19wg 25 101 63 214
408682 2009-05-09 1057 371 SOA Sonora TX USA na DM90qn 25 492 306 278
408464 2009-05-05 0000 529 LYQ Morrison TN USA na EM65xo 100 1082 673 52
249479 2007-03-18 0337 382 YPL Pickle Lake ON CAN na EO41vk 500 2422 1505 8
249480 2007-03-18 0330 385 EMR 'Emory' Augusta GA USA na EM93al 400 1339 832 69
249481 2007-03-18 0319 390 JT Stephenville NL CAN na GN08on 450 3721 2312 45
249482 2007-03-18 0312 392 VEP Vero Beach FL USA na EL97sp 49 1492 927 96
249484 2007-03-18 0254 400 XW 'Flmng' Mason KY USA na EM88en 1447 899 45
249483 2007-03-18 0250 398 HFY 'Greenwood' Indianapolis IN USA na EM69wp 1371 852 36
249485 2007-03-18 0238 401 GGK Mayfield KY USA na EM56qq 25 980 609 39
249461 2007-03-16 0342 424 RVJ 'Prison' Reidsville GA USA na EM82wb 25 1297 806 76
249462 2007-03-16 0332 432 MHP Metter GA USA na EM82wi 25 1301 809 75
249463 2007-03-16 0326 435 IIY 'Washington-Wilkes Co' Washington GA USA na EM83os 25 1273 791 67
249460 2007-03-12 2237 388 MF 'Missi' Mc Allen TX USA na EL06ug 496 308 213
249421 2007-03-04 0719 400 QQ Comox BC CAN na CN79ms 3297 2048 320
249420 2007-03-04 0709 400 UWI 'Whitfield' Dalton GA USA na EM74ms 25 1124 699 59
249419 2007-03-04 0701 392 ML 'Sabar' Monroe LA USA na EM32wk 422 262 49
249418 2007-03-04 0652 386 SYF St. Francis KS USA na DM99cr 25 1220 758 333
249417 2007-03-04 0615 366 YMW Maniwaki QC CAN na FN26ae 500 2470 1535 37
249416 2007-03-04 0605 359 SDR Snyder TX USA na DM92mq 25 594 369 301
249415 2007-03-04 0544 356 ME 'Savoy' Meridian MS USA na EM52of 688 427 67
414181 2006-06-19 1634 323 GR 'Starn' Fort Hood (Kileen) TX USA na EM11be 258 160 300
414180 2006-06-19 1632 320 TY Tyler / Indoo TX USA na EM22gj 100 264 164 1
414176 2006-06-19 1628 278 UX 'Sulfy' Sulphur LA USA na EM30ge 201 125 84
414191 2006-06-19 1615 396 CRS Corsicana TX USA na EM12ta 25 236 147 340
414188 2006-06-19 1611 375 PSN Palestine TX USA na EM21ds 25 195 121 355
414183 2006-06-19 1601 329 HMA Hondo TX USA na EL09ji 25 362 225 259
414192 2006-06-19 1556 418 CW 'Mossy' Lake Charles LA USA na EM30jh 25 227 141 81
414190 2006-06-19 1555 391 RKP Rockport TX USA na EL18lc 25 258 160 214
414193 2006-06-18 1844 521 DWH 'David Hooks' Houston TX USA na EM20fd 14 9
414189 2006-06-18 1819 388 SGR 'Hull' Houston TX USA na EL29ep 50 42 26 190
414187 2006-06-18 1801 350 OKT Yoakum TX USA na EL19kh 172 107 243
414186 2006-06-18 1758 347 TKB 'Kleberg Co' Kingsville TX USA na EL07wo 25 368 229 223
414185 2006-06-18 1753 344 BYY Bay City TX USA na EL28bx 25 120 75 195
414184 2006-06-18 1749 332 GUO Georgetown TX USA na EM10dq 221 137 290
414182 2006-06-18 1746 326 BVP Houston TX USA na EL29jx 25 32 20 98
414179 2006-06-18 1743 308 UTS Huntsville TX USA na EM20er 28 79 49 354
414178 2006-06-18 1740 286 EYQ 'Weiser' Houston TX USA na EL29ew 25 12 8 220
414177 2006-06-18 1738 281 CX 'Alibi' Conroe TX USA na EM20gk 25 47 29 9
414175 2006-06-18 1734 269 AHX Athens TX USA na EM22cd 25 237 148 354
414174 2006-06-18 1729 263 LB 'Freep' Angleton / Lake Jackson TX USA na EL29ge 93 58 175
414173 2006-06-18 1723 251 MNZ Hamilton TX USA na EM01wo 25 303 188 306
414172 2006-06-18 1719 245 ARM Wharton TX USA na EL19wg 25 101 63 214
414171 2006-06-18 1714 206 GLS Galveston TX USA na EL29oi 2000 104 64 135
249414 2006-06-02 1104 353 BKS 'Brooks Co' Falfurrias TX USA na EL07we 25 403 251 219
249413 2006-02-14 0603 344 GNC 'Gaines County' Seminole TX USA na DM82qq 25 735 457 295
249412 2006-01-24 0505 450 PPA Puerto Plata DOM ca FK49rs 2759 1714 108
249411 2006-01-24 0420 335 DR 'Kotti' Del Rio TX USA na DL99mk 527 327 264
249410 2006-01-24 0404 284 VIV Vivian LA USA na EM22xu 346 215 23
121048 2005-08-30 1030 253 OC 'Nados' Nacogdoches TX USA na EM21pl 25 181 112 25
121049 2005-08-30 0921 256 JBL 'Hodge' Jonesboro LA USA na EM32pe 362 225 47
121047 2005-08-16 1021 242 EL 'Valtr' El Paso TX USA na DM61uu 400 1045 649 283
121046 2005-08-13 1105 405 LR 'Pekks' Laredo TX USA na EL07gp 464 288 236
121045 2005-08-06 0505 385 CPZ 'Chaparrosa Ranch' La Pryor TX USA na DL98xv 25 453 282 255
117192 2005-08-02 1000 524 HRD 'Hardin County' Kountze / Silsbee TX USA na EM20ui 25 126 78 72
117191 2005-08-02 0945 412 BWR 'Brewster Co' Alpine TX USA na DM80ek 25 778 483 275
117190 2005-07-19 1200 284 BEA Beeville TX USA na EL18ci 286 178 230
117189 2005-07-19 1146 326 BVP Houston TX USA na EL29jx 25 32 20 98
108779 2005-05-09 0334 512 HMY 'Muldrow' Lexington OK USA na EM15ja 25 577 359 344
108778 2005-05-07 0347 359 GUV 'Gator' Fort Polk LA USA na EM31ja 250 155 62
108777 2005-05-07 0337 350 OKT Yoakum TX USA na EL19kh 172 107 243
107015 2005-04-17 0445 227 LCE 'Goloson' La Ceiba (Atlantida) HND ca EK65nr 400 1818 1130 148
107014 2005-04-17 0407 276 MJD Picayune MS USA na EM50el 571 354 83
104916 2005-04-05 0609 415 SLS Salinas (Guayas) EQA sa EI97mt 1015 3902 2424 154
104915 2005-04-05 0533 385 HO 'Hossy' Hot Springs AR USA na EM34jk 1050 50 538 334 23
104914 2005-04-05 0527 380 OEL Oakley KS USA na DM99oc 960 1020 25 1118 695 336
104913 2005-04-05 0519 379 FSK Fort Scott KS USA na EM27ot 1050 1040 25 869 540 4
104912 2005-04-05 0502 370 LMS San Pedro Sula (Cortes) HND ca EK65bl 1020 50 1796 1116 152
104910 2005-04-05 0443 365 AA 'Kenie' Fargo MN USA na EN17oa 1050 1020 100 1893 1176 357
104911 2005-04-05 0440 365 PAL Palma EQA sa FI07cx 1020 1000 3936 2445 152
104909 2005-04-05 0430 359 JWG Watonga OK USA na EM05su 1010 990 25 703 437 338
104908 2005-04-05 0421 353 ICL Clarinda IA USA na EN20lr 1020 1015 25 1192 740 2
104907 2005-04-05 0359 341 OIN Oberlin KS USA na DM99rt 1040 1020 25 1180 733 338
104906 2005-04-05 0347 338 RYN 'Ryan' Tucson AZ USA na DM42kd 1040 1030 400 1501 933 283
104904 2005-04-05 0336 330 CZM Cozumel (Quintana Roo) MEX ca EL60mm 1350 1285 1363 847 138
104905 2005-04-05 0330 332 FIS 'Fish Hook' Key West FL USA na EL94cn 1045 1038 400 1487 924 110
104903 2005-04-05 0322 329 TAD Trinidad CO USA na DM77th 1050 1024 150 1150 715 317
104902 2005-04-05 0316 323 HHW Hugo OK USA na EM24fa 1078 1010 25 445 276
104901 2005-04-03 0530 266 LLN Levelland TX USA na DM83tn 1015 1015 756 470 303
104900 2005-04-03 0523 263 ER 'Shein' Kerrville TX USA na EL09lv 30 337 210 268
104899 2005-04-03 0432 234 RYD Green Cove Springs FL USA na EL99ex 1025 1339 832 86
104898 2005-04-03 0407 215 CSZ 'Crossroads' Athens TX USA na EM22ab 1025 25 230 143 350
104897 2005-03-28 0346 344 JA 'Dinns' Jacksonville FL USA na EM90cl 1065 1020 400 1321 821 84
97771 2005-03-28 0330 368 ROQ Ruston LA USA na EM32qo 25 399 248 43
97765 2005-03-28 0235 356 HZ 'Hazer' New Roads LA USA na EM40gp 398 247 78
97769 2005-03-28 0217 365 FT 'Mufin' Fort Worth TX USA na EM12hv 25 364 226 331
97763 2005-03-28 0216 353 LI 'Lasky' Little Rock AR USA na EM34uq 400 602 374 29
97760 2005-03-28 0211 350 LF 'Flufy' Lufkin TX USA na EM21of 152 95 27
97766 2005-03-27 0645 356 PB 'Rubin' West Palm Beach FL USA na EL96vq 1544 959 100
97764 2005-03-27 0639 356 GMZ 'Grindstone Mountain' Bowie TX USA na EM13co 452 281 332
97767 2005-03-27 0629 359 HHH Devine TX USA na EL09md 25 344 214 254
97770 2005-03-27 0615 368 AN 'Alamo' San Antonio TX USA na EL09ro 400 293 182 261
97761 2005-03-26 0454 350 RG 'Gally' Oklahoma City OK USA na EM15eh 400 620 385 342
97768 2005-03-26 0428 362 BNH Brenham TX USA na EM10tf 25 83 52 286
97762 2005-03-26 0226 353 JUK 'Mc Kinnon' Brunswick GA USA na EM91hd 25 1361 846 81
104896 2005-03-08 1004 260 SNE Santa Elena TX USA na EL06rr 990 469 291 219
104895 2005-03-04 0417 520 IQS Sallisaw OK USA na EM25oj 1015 1020 25 602 374 6
104894 2005-03-04 0402 426 UV 'Tunng' Oxford MS USA na EM54ej 1080 1060 25 739 459 47
104893 2005-03-04 0400 426 FTP Fort Payne AL USA na EM74dm 1044 1020 25 1050 653 59
104892 2005-03-04 0330 410 OIP 'Old Rip' Eastland TX USA na EM02oj 1030 1020 25 406 253 311
104889 2005-03-04 0305 395 GD Guadalajara (Jalisco) MEX ca DL80jl 948 965 1000 1311 814 217
104888 2005-03-04 0256 392 FMZ 'Beklof' Fairmont NE USA na EN10fo 1030 25 1191 740 351
104887 2005-03-04 0249 391 RKP Rockport TX USA na EL18lc 1066 1020 25 258 160 214
104891 2005-03-04 0132 396 CRS Corsicana TX USA na EM12ta 1017 25 236 147 340
104890 2005-03-04 0125 396 CQB 'Tilghman' Chandler OK USA na EM15or 1010 645 401 349
104886 2005-03-03 0121 415 HJM 'Rayburn' Bonham TX USA na EM13vo 1015 25 403 251 351
92405 2005-02-18 0608 322 #862 Summerfield (St. Louis, MO) IL USA na EM58co 1090 677 27
92399 2005-02-18 0240 299 #866 Sallisaw OK USA na EM25oi 597 371 6
92398 2005-02-18 0237 293 #814 English Turn LA USA na EL59av 538 334 90
92404 2005-02-18 0226 320 #865 Miller's Ferry AL USA na EM62hc 811 504 71
92403 2005-02-18 0224 319 #818 Groveland (Savannah) GA USA na EM92dd 1337 831 76
92402 2005-02-18 0222 318 #823 Summerfield TX USA na DM84rt 846 525 310
92401 2005-02-18 0219 313 #860 Delta (Vicksburg, MS) LA USA na EM42mh 505 314 58
92400 2005-02-18 0213 307 #825 Hackleburg AL USA na EM64bg 862 536 54
92397 2005-02-16 1719 304 #816 Aransas Pass TX USA na EL17lu 282 175 211
92396 2005-02-16 1715 301 #828 Bonny (Angleton) TX USA na EL29gh 79 49 174
85024 2005-02-12 0404 518 $04A Miami FL USA na EL95to 1569 975 104
92394 2005-02-12 0326 275 ADF Arkadelphia AR USA na EM34kb 1025 1030 25 504 313 26
85023 2005-02-12 0240 518 $04R San Juan PR PTR ca FK68ll 3149 1957 107
92395 2005-02-12 0240 518 $04A Miami FL USA na EL95to 1569 975 104
85022 2005-02-12 0044 518 $04E Charleston SC USA na FM02au 1510 938 73
85021 2005-02-11 1004 518 $04G New Orleans LA USA na EL59av 538 334 90
92393 2005-02-09 2301 518 $04G New Orleans LA USA na EL59av 538 334 90
92392 2005-02-09 0106 518 $04E Charleston SC USA na FM02au 1510 938 73
84439 2005-02-07 0315 276 3H Consort AB CAN na DO42pa 2745 1705 337
92391 2005-02-05 1202 239 PWY Hebbronville TX USA na EL07qk 1039 416 258 227
92390 2005-02-05 1152 228 BCZ 'Choctaw' Butler AL USA na EM52wc 1020 25 743 462 69
92389 2005-02-04 0644 526 ZLS Stella Maris, Long Island BAH ca FL23in 1048 1040 2130 1324 104
92388 2005-02-04 0640 518 GCT Guthrie Center IA USA na EN21sq 1015 1018 1301 808 3
92387 2005-02-04 0635 434 SLB Storm Lake IA USA na EN22jo 1033 1030 25 1399 870 1
92386 2005-02-04 0633 430 AYB Auburn NE USA na EN20ck 1025 1020 1158 720 358
92385 2005-02-04 0631 428 POH Pocahontas IA USA na EN22qr 1030 25 1415 879 3
92384 2005-02-04 0623 423 CKP 'Pilot Rock' Cherokee IA USA na EN22fr 1045 1025 25 1413 878
92383 2005-02-04 0618 419 RYS 'Grosse Ile' Detroit / Grosse Ile MI USA na EN82kc 1009 1025 25 1743 1083 36
92382 2005-02-04 0616 417 IY 'Chukk' Charles City IA USA na EN33pd 1 1025 25 1481 920 9
92379 2005-02-04 0612 414 EGT Wellington KS USA na EM17hh 1015 25 828 515 348
92380 2005-02-04 0610 414 IEB Lebanon MO USA na EM37qn 1000 1035 881 547 17
92381 2005-02-04 0603 414 SU 'Salix' Sioux City IA USA na EN12uh 1055 40 1368 850 357
92377 2005-02-04 0558 408 JDM 'Wheatfield' Colby KS USA na DM99lm 1040 1030 25 1169 726 336
92378 2005-02-04 0554 410 GG 'Veels' Longview TX USA na EM22ok 1040 278 173 14
92376 2005-02-04 0549 407 AD 'Brons' Dallas TX USA na EM13nb 1060 361 224 339
92374 2005-02-04 0544 404 ABG 'Ambassador' Big Sandy TX USA na EM22ko 1015 25 290 180 7
92375 2005-02-04 0543 406 OK 'Tuloo' Tulakes OK USA na EM15el 1045 1020 637 396 342
92373 2005-02-04 0539 400 AHQ Wahoo NE USA na EN11qf 1035 1250 777 355
92372 2005-02-04 0530 397 CIN Carroll IA USA na EN22ob 1034 25 1341 833 2
92371 2005-02-04 0519 391 BHN 'Buckhorn' Fort Leonard Wood MO USA na EM37wq 1060 1050 909 565 19
92370 2005-02-04 0508 385 DR 'Idder' De Ridder LA USA na EM30hs 1040 224 139 67
92369 2005-02-04 0458 378 TGC 'Gibson' Trenton TN USA na EM55nw 1030 1015 25 905 562 41
92368 2005-02-04 0456 378 CN 'Leroi' Waco TX USA na EM11lr 1035 1020 238 148 323
92367 2005-02-04 0450 375 PSN Palestine TX USA na EM21ds 1010 25 195 121 355
92366 2005-02-04 0443 373 TF 'Aruba' Pueblo CO USA na DM78tg 1048 1024 1224 761 320
92364 2005-02-04 0435 368 PPA Pampa TX USA na DM95mo 1058 1049 25 801 497 322
92365 2005-02-04 0432 368 ROQ Ruston LA USA na EM32qo 1020 1020 25 399 248 43
92362 2005-02-04 0424 365 HQG Hugoton KS USA na DM97hd 1070 1015 25 958 596 327
92363 2005-02-04 0418 365 MNF Mountain View MO USA na EM46dx 1020 851 529 23
92361 2005-02-04 0412 365 FT 'Mufin' Fort Worth TX USA na EM12hv 1031 1015 25 364 226 331
92359 2005-02-04 0350 356 ODX Ord NE USA na EN01mo 1020 1020 25 1324 823 347
92360 2005-02-04 0341 356 PTT Pratt KS USA na EM07pr 1020 1010 25 905 563 342
92358 2005-02-04 0338 356 LLU 'Spring River' Lamar MO USA na EM27ul 1030 1020 837 520 7
92356 2005-02-04 0201 329 LXY Mexia TX USA na EM11rp 204 127 332
92355 2005-02-04 0144 323 GR 'Starn' Fort Hood (Kileen) TX USA na EM11be 1020 1008 258 160 300
92354 2005-02-04 0135 320 TY Tyler / Indoo TX USA na EM22gj 1025 100 264 164 1
92357 2005-02-04 0000 353 DWL 'Willow' Gothenburg NE USA na DN90xu 1025 1006 25 1271 790 342
80481 2005-01-31 0344 344 JAS Jasper TX USA na EM20xw 25 176 109 54
80472 2005-01-30 1138 338 CVB Castroville TX USA na EL09ni 25 330 205 257
80489 2005-01-30 0611 348 VLX 'Wilcox' Mountain View AR USA na EM35wu 25 723 449 25
80482 2005-01-30 0554 344 ML 'Wampa' Mc Alester OK USA na EM24ct 533 331 357
80473 2005-01-30 0543 338 HIL 'Hilyn' Great Bend KS USA na EM08ni 976 606 342
80470 2005-01-30 0530 335 OPL 'St Landry' Opelousas LA USA na EM30wp 335 208 77
80475 2005-01-30 0338 338 MRK 'Molly Ridge' Rayville LA USA na EM42cj 444 276 52
81081 2005-01-30 0138 347 TKB 'Kleberg Co' Kingsville TX USA na EL07wo 1023 25 368 229 223
80484 2005-01-29 0605 346 THJ 'Tallahala' Laurel MS USA na EM51jq 25 632 393 71
80488 2005-01-29 0431 347 TKB 'Kleberg Co' Kingsville TX USA na EL07wo 25 368 229 223
80487 2005-01-29 0428 347 MKV Marksville LA USA na EM31xc 25 356 221 69
80474 2005-01-29 0338 338 HR 'Sebas' Harlingen TX USA na EL16eh 25 460 286 206
81080 2005-01-29 0330 233 PK 'Issue' Dallas (DFW) TX USA na EM12lt 1025 341 212 335
81079 2005-01-29 0323 227 MPR Mc Pherson KS USA na EM18di 1070 1066 25 948 589 348
80471 2005-01-29 0248 335 RQO El Reno OK USA na EM05xl 25 650 404 339
80485 2005-01-29 0240 347 HLR 'Hood' Fort Hood (Killeen) TX USA na EM11dd 242 150 301
80486 2005-01-29 0233 347 JPA 'Sanjac' La Porte TX USA na EL29lq 25 61 38 127
80480 2005-01-29 0231 344 CGQ 'Powell' Corsicana TX USA na EM12sb 243 151 339
80479 2005-01-29 0229 344 BYY Bay City TX USA na EL28bx 25 120 75 195
80483 2005-01-29 0224 344 ZIY George Town / Grand Cayman Island CYM ca EK99hg 1862 1157 126
80478 2005-01-29 0221 341 MYZ Marysville KS USA na EM19qu 1098 682 355
80476 2005-01-29 0215 341 DNI Denison TX USA na EM13pt 25 436 271 345
80477 2005-01-29 0208 341 JHN 'Bear Creek' Johnson KS USA na DM97dp 1021 634 327
81078 2005-01-28 0107 371 GHX Graham TX USA na EM03sd 1020 1015 25 444 276 322
81077 2005-01-27 0131 359 DUA Durant OK USA na EM13tw 1016 1015 25 443 275 349
81075 2005-01-27 0118 356 GMZ 'Grindstone Mountain' Bowie TX USA na EM13co 1045 452 281 332
81074 2005-01-27 0114 353 AB 'Tomhi' Abilene TX USA na EM02dh 1020 1025 471 293 303
81076 2005-01-27 0113 358 AC 'Coffi' Waco TX USA na EM11jq 1050 244 152 319
81072 2005-01-26 0228 344 CGQ 'Powell' Corsicana TX USA na EM12sb 243 151 339
81073 2005-01-26 0224 344 JAS Jasper TX USA na EM20xw 25 176 109 54
81071 2005-01-26 0215 341 BMQ Burnet TX USA na EM00vr 1015 1020 25 268 166 287
81070 2005-01-26 0203 338 CVB Castroville TX USA na EL09ni 1030 25 330 205 257
81069 2005-01-26 0149 332 GUO Georgetown TX USA na EM10dq 1020 1015 221 137 290
81068 2005-01-22 1250 278 IL 'Iresh' Killeen TX USA na EM11da 1040 25 235 146 298
81067 2005-01-22 1230 272 RU 'Garys' San Marcos TX USA na EL19ax 233 145 269
81066 2005-01-22 1146 257 SQT 'Satellite' Melbourne FL USA na EL98pc 1035 1040 1456 905 94
81065 2005-01-22 0407 245 ANR Andrews TX USA na DM82ri 1034 714 444 293
81064 2005-01-22 0350 242 MEZ Mena AR USA na EM24vn 1020 25 520 323 13
81063 2005-01-22 0341 240 AWC Fort Polk LA USA na EM31ij 1040 1025 264 164 54
81062 2005-01-22 0328 239 UBC Ballinger TX USA na EM01aq 1010 1015 25 460 286 294
81061 2005-01-22 0322 239 LNC Lancaster TX USA na EM12pn 1021 25 304 189 338
81060 2005-01-15 0559 400 AI 'Addmo' Ardmore OK USA na EM14mf 1050 1050 25 487 302 344
81059 2005-01-15 0544 385 TKL 'Tikal' Santa Elena Y Flores (Peten) GTM ca EK56bv 1025 1569 975 157
81057 2005-01-15 0533 375 CHT Chillicothe MO USA na EM39gs 1030 1012 1101 684 9
81058 2005-01-15 0528 375 DW 'Owaso' Tulsa OK USA na EM26bh 1026 1040 20 700 435 357
81056 2005-01-15 0459 344 ZIY George Town / Grand Cayman Island CYM ca EK99hg 1026 1040 1862 1157 126
81055 2005-01-15 0457 341 DNI Denison TX USA na EM13pt 1035 25 436 271 345
81054 2005-01-15 0445 330 GLE Gainesville TX USA na EM13jr 441 274 339
81053 2005-01-15 0418 323 HJH Hebron NE USA na EN10ed 1021 25 1142 709 351
81052 2005-01-15 0410 320 CLK Clinton OK USA na EM05mm 993 20 690 429 333
81051 2005-01-14 0348 247 VED Leesville LA USA na EM31hc 1015 1035 240 149 59
81050 2005-01-14 0309 245 BKD Breckenridge TX USA na EM02nr 1015 1015 25 437 271 314
81044 2005-01-11 0605 305 RO 'Topan' Roswell NM USA na DM73si 400 921 572 296
81043 2005-01-11 0540 256 TQK Scott City KS USA na DM98nl 1060 659 333
81042 2005-01-11 0533 247 ILT Isleta NM USA na DM64qx 400 1175 730 300
81041 2005-01-11 0529 245 PTN Patterson LA USA na EL49hr 403 250 93
81040 2005-01-11 0526 245 FS 'Rokky' Sioux Falls SD USA na EN13ol 100 1501 932 356
81049 2005-01-11 0445 421 EF 'Fluet' Mc Kinney TX USA na EM13qg 376 233 344
81048 2005-01-11 0437 411 SDA Shenandoah IA USA na EN20hs 25 1195 743
81046 2005-01-11 0428 407 IE 'Campi' Natchitoches LA USA na EM31lp 1045 1030 299 186 52
81047 2005-01-11 0427 407 PRZ Portales NM USA na DM84hd 1015 1020 25 868 540 303
81045 2005-01-11 0421 403 MFS 'Horseshoe Bay Resort' Marble Falls TX USA na EM00tm 1015 278 173 282
81039 2005-01-09 0719 400 ROB 'Robinson' Waco TX USA na EM11lm 220 137 319
81037 2005-01-09 0710 388 JUG 'Jecca' Seagoville TX USA na EM12rq 25 311 193 342
81038 2005-01-09 0706 388 OFZ 'Trail' Fort Sill OK USA na EM04ts 591 367 334
81036 2005-01-09 0703 388 AM 'Picny' Tampa FL USA na EL87ru 400 1287 800 97
81034 2005-01-09 0657 379 LRR 'Allen Parish' Oakdale LA USA na EM30pp 281 174 74
81035 2005-01-09 0654 379 TL 'Wakul' Tallahassee FL USA na EM70th 400 1074 667 85
81033 2005-01-09 0649 376 ZIN Matthew Town / Great Inagua Island BAH ca FL30dx 400 2405 1494 109
81031 2005-01-09 0645 375 GUA Guatemala City GTM ca EK44ro 50 1789 1112 162
81032 2005-01-09 0643 375 RYB Raymond MS USA na EM42th 25 554 344 61
81030 2005-01-09 0639 374 FLZ Fort Rucker 'Florala Airport' AL USA na EM61ub 893 555 80
81029 2005-01-09 0633 368 SIR Sinclair WY USA na DN61kt 100 1672 1039 324
81028 2005-01-09 0628 368 AN 'Alamo' San Antonio TX USA na EL09ro 400 293 182 261
81027 2005-01-09 0621 359 HHH Devine TX USA na EL09md 25 344 214 254
81026 2005-01-09 0603 353 JUK 'Mc Kinnon' Brunswick GA USA na EM91hd 25 1361 846 81
81025 2005-01-09 0551 347 HLR 'Hood' Fort Hood (Killeen) TX USA na EM11dd 242 150 301
81024 2005-01-04 0532 402 IFJ Winnfield LA USA na EM31qx 353 219 51
81023 2005-01-04 0525 395 XEN Xenia OH USA na EM89ar 25 1508 937 41
81022 2005-01-04 0518 384 PVJ Pauls Valley OK USA na EM14jr 546 339 343
81021 2005-01-04 0516 382 VKS Vicksburg MS USA na EM42mf 501 311 59
81020 2005-01-04 0510 375 SPH Springhill LA USA na EM32hw 25 384 239 31
81019 2005-01-04 0459 353 LI 'Lasky' Little Rock AR USA na EM34uq 400 602 374 29
81018 2005-01-04 0450 347 MKV Marksville LA USA na EM31xc 25 356 221 69
81017 2005-01-04 0449 346 THJ 'Tallahala' Laurel MS USA na EM51jq 25 632 393 71
81016 2005-01-04 0446 344 BYY Bay City TX USA na EL28bx 25 120 75 195
81015 2005-01-04 0439 338 MRK 'Molly Ridge' Rayville LA USA na EM42cj 444 276 52
76249 2005-01-02 0604 326 PKZ 'Pickens' Pensacola FL USA na EM60jk 400 802 498 84
76248 2005-01-02 0549 345 JTH Unknown XUU xx
76247 2005-01-02 0546 350 IUI 'Hicks' Blytheville AR USA na EM55bw 25 844 524 37
76246 2005-01-02 0514 414 SPQ 'Spain' Memphis TN USA na EM45xe 25 771 479 40
76245 2005-01-02 0510 414 MSD Mansfield LA USA na EM32cb 25 282 175 35
76238 2005-01-02 0508 515 PN 'Ponca' Ponca City OK USA na EM16kt 25 769 478 349
76244 2005-01-02 0447 382 CR 'Conor' Chorpus Christi TX USA na EL17fu 310 192 219
76243 2005-01-02 0425 263 JSO 'Cherokee Co' Jacksonville TX USA na EM21ju 206 128 8
76242 2005-01-02 0340 395 ULS Ulysses KS USA na DM97ho 1000 621 329
76241 2005-01-02 0337 400 HHF 'Hemphill County' Canadian TX USA na DM95tv 25 793 493 326
76240 2005-01-02 0330 407 AKL Haskell TX USA na EM03de 25 529 329 312
76239 2005-01-02 0325 411 HDL Holdenville OK USA na EM15tc 571 355 352
69452 2004-12-31 0636 400 7F Collins Bay SK CAN na DO88df 3198 1987 351
69451 2004-12-31 0631 397 BWK Bunkie LA USA na EM30vu 333 207 72
69450 2004-12-31 0629 391 GXD Nacogdoches TX USA na EM21pp 25 197 123 23
69449 2004-12-31 0619 329 HMA Hondo TX USA na EL09ji 25 362 225 259
69448 2004-12-31 0615 314 GGU Prague OK USA na EM15pm 25 621 386 350
69447 2004-12-31 0608 281 UVA Uvalde TX USA na EL09de 25 413 257 258
69446 2004-12-31 0602 272 MMY Many LA USA na EM31fn 257 159 47
69445 2004-12-31 0600 266 MWL Mineral Wells TX USA na EM02xs 387 240 322
69444 2004-12-31 0556 263 ECY Eunice LA USA na EM30sn 25 302 188 77
69443 2004-12-31 0545 251 AM 'Pande' Amarillo TX USA na DM95cd 400 817 507 315
69442 2004-12-31 0540 248 MBJ Montego Bay JMC ca FK18am 1000 2189 1360 121
69441 2004-12-31 0516 428 SYW 'Cash' Greenville TX USA na EM12xx 25 332 206 351
69440 2004-12-31 0510 414.5 RPB 'Republican' Belleville KS USA na EM19et 1105 687 350
69439 2004-12-31 0508 418 CW 'Mossy' Lake Charles LA USA na EM30jh 25 227 141 81
69438 2004-12-31 0504 415 CBC West End (Cayman Brac) CYM ca FK09bq 600 1951 1212 122
69437 2004-12-31 0455 410 DQU De Quincy LA USA na EM30gk 205 128 76
69436 2004-12-31 0434 391 DDP San Juan / Dorado / Luiz Munoz Marin Intl PR PTR ca FK68tl 2000 3211 1995 106
69435 2004-12-31 0420 280 MPG Progreso (Yucatan) MEX ca EL51dg 1000 1135 705 147
69434 2004-12-31 0401 380 BBD Brady TX USA na EM01ie 25 382 237 290
69433 2004-12-31 0340 420 PK Olathe KS USA na EM28ps 25 976 606 4
69432 2004-12-31 0305 260 LWS Unknown XUN xx
69431 2004-12-31 0259 260 AVZ 'Travis' Terrell TX USA na EM12vs 25 312 194 348
69430 2004-12-30 2144 515 PKV Port Lavaca TX USA na EL18pp 25 190 118 216
69429 2004-12-30 2140 385 GYB 'Lee County' Giddings TX USA na EM10me 25 138 85 278
69428 2004-12-30 2135 308 UTS Huntsville TX USA na EM20er 28 79 49 354
69427 2004-12-29 2324 255 BS 'Creed' Austin TX USA na EM10dc 209 130 273
67387 2004-12-29 0430 350 RG 'Gally' Oklahoma City OK USA na EM15eh 400 620 385 342
67381 2004-12-29 0425 281 CX 'Alibi' Conroe TX USA na EM20gk 25 47 29 9
67380 2004-12-29 0420 278 UX 'Sulfy' Sulphur LA USA na EM30ge 201 125 84
67379 2004-12-29 0418 275 PEZ Pleasanton TX USA na EL08rw 314 195 248
67378 2004-12-29 0414 269 AR 'Acadi' New Iberia LA USA na EL49bw 25 353 219 90
67365 2004-12-29 0408 216 CLB Wilmington / Carolina Beach NC USA na FM14ac 1715 1066 70
67377 2004-12-26 0325 269 AHX Athens TX USA na EM22cd 25 237 148 354
67376 2004-12-26 0322 263 LB 'Freep' Angleton / Lake Jackson TX USA na EL29ge 93 58 175
67375 2004-12-26 0321 260 CL 'Rowdy' College Station TX USA na EM10tl 95 59 302
67374 2004-12-26 0320 257 BP 'Kazoo' Beaumont / Port Arthur TX USA na EL29wx 136 85 91
67373 2004-12-26 0318 251 MNZ Hamilton TX USA na EM01wo 25 303 188 306
67372 2004-12-26 0314 248 PQF Mesquite TX USA na EM12rt 25 325 202 343
67367 2004-12-26 0312 230 SH 'Crakk' Shreveport LA USA na EM32bm 400 320 199 29
67370 2004-12-26 0312 232 GF 'Birdy' Austin TX USA na EM10dg 210 131 278
67366 2004-12-26 0311 226 VCT 'Fostr' Victoria TX USA na EL18lv 50 192 119 229
67362 2004-12-26 0310 201 GV 'Major' Greenville TX USA na EM13xd 25 351 218 352
67382 2004-12-26 0304 286 EYQ 'Weiser' Houston TX USA na EL29ew 25 12 8 220
67385 2004-12-10 0324 338 HR 'Sebas' Harlingen TX USA na EL16eh 25 460 286 206
67386 2004-12-10 0319 347 JPA 'Sanjac' La Porte TX USA na EL29lq 25 61 38 127
67388 2004-12-10 0317 362 BNH Brenham TX USA na EM10tf 25 83 52 286
67390 2004-12-10 0314 402 SYG 'Sandy Point' Houston TX USA na EL29gm 56 35 171
67371 2004-12-07 0358 245 ARM Wharton TX USA na EL19wg 25 101 63 214
67364 2004-12-07 0357 211 ORG Orange TX USA na EM30cb 169 105 87
67383 2004-12-07 0354 326 JY 'Nixin' Houston TX USA na EL29jx 25 32 20 98
67384 2004-12-07 0354 326 MA 'Farly' Midland TX USA na DM81ux 400 679 422 290
67391 2004-12-06 0312 521 DWH 'David Hooks' Houston TX USA na EM20fd 14 9
67389 2004-12-06 0310 388 SGR 'Hull' Houston TX USA na EL29ep 50 42 26 190
67363 2004-12-06 0300 206 GLS Galveston TX USA na EL29oi 2000 104 64 135